Time;durP1;ratioP1;P1;durP2;ratioP2;P2;SDS_P1;SDS_P2;PMS_P1;PMS_P2;Temp;Humidity;BMP_temperature;BMP_pressure;BME280_temperature;BME280_humidity;BME280_pressure;Samples;Min_cycle;Max_cycle;Signal;HPM_P1;HPM_P2
2024/04/21 00:00:35;;;;;;;11.73;2.10;;;;;;;5.72;100.00;102271.72;5508029;26;20307;-38
2024/04/21 00:03:00;;;;;;;9.95;2.22;;;;;;;5.69;100.00;102267.53;5507980;26;20066;-38
2024/04/21 00:05:26;;;;;;;5.70;1.73;;;;;;;5.66;100.00;102262.50;5498477;26;20075;-38
2024/04/21 00:07:51;;;;;;;9.90;2.17;;;;;;;5.70;100.00;102265.66;5491963;26;20224;-38
2024/04/21 00:10:16;;;;;;;5.47;1.57;;;;;;;5.72;100.00;102269.06;5492457;26;20004;-38
2024/04/21 00:12:42;;;;;;;7.13;2.00;;;;;;;5.71;100.00;102259.31;5491991;26;20010;-38
2024/04/21 00:15:07;;;;;;;5.90;1.97;;;;;;;5.72;100.00;102261.00;5492081;26;20005;-38
2024/04/21 00:17:34;;;;;;;9.82;1.95;;;;;;;5.60;100.00;102251.56;5491934;26;19994;-38
2024/04/21 00:19:59;;;;;;;7.32;1.80;;;;;;;5.69;100.00;102256.78;5492642;26;19991;-38
2024/04/21 00:22:25;;;;;;;8.50;2.33;;;;;;;5.66;100.00;102259.81;5492087;26;20379;-38
2024/04/21 00:24:50;;;;;;;7.23;2.23;;;;;;;5.62;100.00;102254.94;5492538;26;20006;-38
2024/04/21 00:27:15;;;;;;;7.90;1.80;;;;;;;5.55;100.00;102248.53;5491888;26;19998;-38
2024/04/21 00:29:40;;;;;;;5.17;1.53;;;;;;;5.48;100.00;102234.94;5491684;26;19998;-38
2024/04/21 00:32:06;;;;;;;5.23;1.53;;;;;;;5.48;100.00;102258.25;5491497;26;19997;-38
2024/04/21 00:34:31;;;;;;;6.83;1.57;;;;;;;5.39;100.00;102228.69;5491770;26;20024;-38
2024/04/21 00:36:57;;;;;;;5.90;1.50;;;;;;;5.40;100.00;102251.84;5491772;26;20311;-38
2024/04/21 00:39:22;;;;;;;11.27;1.40;;;;;;;5.37;100.00;102246.81;5492472;26;19994;-38
2024/04/21 00:41:47;;;;;;;8.00;2.00;;;;;;;5.34;100.00;102251.66;5491529;26;20009;-38
2024/04/21 00:44:12;;;;;;;6.63;2.30;;;;;;;5.18;100.00;102235.50;5491751;26;20009;-38
2024/04/21 00:46:39;;;;;;;7.00;1.60;;;;;;;5.27;100.00;102258.66;5491414;26;19995;-38
2024/04/21 00:49:05;;;;;;;6.70;1.58;;;;;;;5.24;100.00;102262.50;5492067;26;19994;-38
2024/04/21 00:51:30;;;;;;;;;;;;;;;5.31;100.00;102258.16;5492148;26;19998;-38
2024/04/21 00:53:55;;;;;;;9.37;2.37;;;;;;;5.21;100.00;102251.25;5491388;26;19930;-38
2024/04/21 00:56:22;;;;;;;5.23;1.47;;;;;;;5.20;100.00;102247.75;5491756;26;20211;-38
2024/04/21 00:58:51;;;;;;;10.50;1.90;;;;;;;5.11;100.00;102229.94;5491706;26;20002;-38
2024/04/21 01:01:16;;;;;;;5.22;1.63;;;;;;;5.16;100.00;102249.06;5491703;26;20368;-38
2024/04/21 01:03:41;;;;;;;7.63;1.60;;;;;;;5.11;100.00;102244.19;5491104;26;19994;-38
2024/04/21 01:06:07;;;;;;;7.87;2.00;;;;;;;5.12;100.00;102243.19;5491594;26;20013;-38
2024/04/21 01:08:32;;;;;;;5.33;1.47;;;;;;;5.05;100.00;102228.75;5491363;26;19994;-38
2024/04/21 01:10:58;;;;;;;6.43;1.45;;;;;;;5.09;100.00;102231.94;5491534;26;19990;-38
2024/04/21 01:13:26;;;;;;;8.03;1.40;;;;;;;5.05;100.00;102230.59;5491185;26;20001;-38
2024/04/21 01:15:52;;;;;;;6.25;1.70;;;;;;;4.96;100.00;102215.47;5491725;26;19990;-38
2024/04/21 01:18:18;;;;;;;9.18;1.95;;;;;;;5.00;100.00;102238.28;5490108;26;20022;-38
2024/04/21 01:20:44;;;;;;;5.32;1.60;;;;;;;4.96;100.00;102229.69;5491908;26;19990;-38
2024/04/21 01:23:10;;;;;;;7.70;2.05;;;;;;;4.83;100.00;102219.44;5490784;26;19998;-38
2024/04/21 01:25:35;;;;;;;5.23;1.20;;;;;;;4.89;100.00;102232.19;5491722;26;19998;-38
2024/04/21 01:28:00;;;;;;;4.83;1.50;;;;;;;4.80;100.00;102221.59;5491686;26;19995;-38
2024/04/21 01:30:26;;;;;;;8.13;1.45;;;;;;;4.84;100.00;102228.31;5491398;26;20013;-38
2024/04/21 01:32:52;;;;;;;5.85;1.45;;;;;;;4.76;100.00;102220.22;5490932;26;19990;-38
2024/04/21 01:35:17;;;;;;;6.53;1.83;;;;;;;4.78;100.00;102219.06;5491018;26;20006;-38
2024/04/21 01:37:42;;;;;;;4.32;1.88;;;;;;;4.71;100.00;102211.81;5490651;26;19990;-38
2024/04/21 01:40:08;;;;;;;3.93;1.40;;;;;;;4.73;100.00;102220.53;5491339;26;20004;-38
2024/04/21 01:42:33;;;;;;;6.15;1.60;;;;;;;4.72;100.00;102211.66;5490551;26;20342;-38
2024/04/21 01:44:59;;;;;;;5.20;1.40;;;;;;;4.56;100.00;102190.13;5491096;26;19986;-38
2024/04/21 01:47:24;;;;;;;5.13;1.53;;;;;;;4.60;100.00;102202.22;5490500;26;20056;-38
2024/04/21 01:49:49;;;;;;;7.23;1.50;;;;;;;4.62;100.00;102202.88;5491282;26;20055;-38
2024/04/21 01:52:14;;;;;;;3.63;1.40;;;;;;;4.57;100.00;102199.84;5490524;26;19990;-38
2024/04/21 01:54:40;;;;;;;4.87;1.30;;;;;;;4.53;100.00;102195.78;5491311;26;19990;-38
2024/04/21 01:57:05;;;;;;;6.07;1.37;;;;;;;4.45;100.00;102179.69;5490640;26;20002;-38
2024/04/21 01:59:31;;;;;;;4.97;1.43;;;;;;;4.39;100.00;102168.63;5490980;26;19997;-38
2024/04/21 02:01:56;;;;;;;6.17;1.60;;;;;;;4.49;100.00;102186.38;5490622;26;20207;-38
2024/04/21 02:04:22;;;;;;;5.75;1.50;;;;;;;4.45;100.00;102180.53;5490957;26;20411;-38
2024/04/21 02:06:48;;;;;;;4.93;1.42;;;;;;;4.39;100.00;102176.66;5490466;26;20403;-38
2024/04/21 02:09:14;;;;;;;6.22;2.08;;;;;;;4.40;100.00;102169.44;5491205;26;20010;-38
2024/04/21 02:11:39;;;;;;;11.53;2.37;;;;;;;4.37;100.00;102170.59;5490419;26;20054;-38
2024/04/21 02:14:04;;;;;;;9.90;1.97;;;;;;;4.29;100.00;102159.81;5490601;26;20001;-38
2024/04/21 02:16:30;;;;;;;5.50;1.37;;;;;;;4.31;100.00;102162.34;5490108;26;19990;-38
2024/04/21 02:18:55;;;;;;;5.83;1.90;;;;;;;4.24;100.00;102153.25;5490399;26;20001;-38
2024/04/21 02:21:20;;;;;;;5.73;1.40;;;;;;;4.24;100.00;102162.13;5489960;26;19998;-39
2024/04/21 02:23:47;;;;;;;6.30;1.50;;;;;;;4.20;100.00;102166.16;5490293;26;20000;-39
2024/04/21 02:26:12;;;;;;;4.47;1.08;;;;;;;4.15;100.00;102147.03;5490195;26;19990;-39
2024/04/21 02:28:38;;;;;;;8.82;1.63;;;;;;;4.21;100.00;102157.09;5490412;26;20055;-39
2024/04/21 02:31:03;;;;;;;5.03;1.50;;;;;;;4.18;100.00;102153.91;5490774;26;20051;-39
2024/04/21 02:33:29;;;;;;;6.03;1.60;;;;;;;4.11;100.00;102146.50;5490091;26;20001;-38
2024/04/21 02:35:54;;;;;;;5.50;2.03;;;;;;;4.09;100.00;102150.31;5490116;26;19990;-39
2024/04/21 02:38:20;;;;;;;5.13;1.27;;;;;;;4.03;100.00;102143.75;5490291;26;20005;-39
2024/04/21 02:40:45;;;;;;;6.13;1.60;;;;;;;4.02;100.00;102138.56;5490084;26;20211;-39
2024/04/21 02:43:10;;;;;;;6.53;1.80;;;;;;;4.02;100.00;102138.56;5489610;26;19994;-38
2024/04/21 02:45:36;;;;;;;7.73;1.20;;;;;;;3.94;100.00;102133.97;5490065;26;19990;-38
2024/04/21 02:48:01;;;;;;;6.18;1.60;;;;;;;3.97;100.00;102138.19;5490206;26;19990;-38
2024/04/21 02:50:26;;;;;;;4.82;1.40;;;;;;;3.97;100.00;102136.34;5490453;26;20002;-38
2024/04/21 02:52:52;;;;;;;6.43;1.50;;;;;;;3.98;100.00;102131.84;5489852;26;20000;-38
2024/04/21 02:55:17;;;;;;;7.53;1.47;;;;;;;3.97;100.00;102117.63;5490404;26;20005;-38
2024/04/21 02:57:43;;;;;;;7.60;1.43;;;;;;;3.96;100.00;102117.78;5489404;26;19990;-38
2024/04/21 03:00:09;;;;;;;4.63;1.10;;;;;;;3.99;100.00;102120.97;5489881;26;20002;-45
2024/04/21 03:02:34;;;;;;;5.82;1.55;;;;;;;3.99;100.00;102109.41;5489517;26;19994;-38
2024/04/21 03:05:00;;;;;;;4.90;1.40;;;;;;;3.97;100.00;102101.56;5490145;26;20318;-38
2024/04/21 03:07:26;;;;;;;3.72;1.23;;;;;;;4.01;100.00;102096.75;5489357;26;20001;-38
2024/04/21 03:09:51;;;;;;;5.60;1.10;;;;;;;3.84;100.00;102069.84;5489809;26;19987;-38
2024/04/21 03:12:16;;;;;;;5.80;1.20;;;;;;;3.97;100.00;102090.84;5489435;26;20215;-38
2024/04/21 03:14:41;;;;;;;3.00;1.30;;;;;;;4.04;100.00;102096.41;5490068;26;20060;-38
2024/04/21 03:17:07;;;;;;;5.27;1.30;;;;;;;4.02;100.00;102090.38;5489488;26;20058;-39
2024/04/21 03:19:32;;;;;;;4.77;1.37;;;;;;;3.98;100.00;102087.19;5489350;26;19991;-39
2024/04/21 03:21:59;;;;;;;6.63;1.33;;;;;;;3.99;100.00;102080.81;5489267;26;20001;-39
2024/04/21 03:24:24;;;;;;;5.05;1.20;;;;;;;3.96;100.00;102075.81;5489283;26;20072;-39
2024/04/21 03:26:50;;;;;;;5.37;1.63;;;;;;;4.04;100.00;102085.69;5488980;26;19998;-39
2024/04/21 03:29:15;;;;;;;9.83;1.63;;;;;;;4.08;100.00;102084.41;5489262;26;19990;-38
2024/04/21 03:31:40;;;;;;;5.67;1.10;;;;;;;4.05;100.00;102080.22;5488915;26;20004;-38
2024/04/21 03:34:06;;;;;;;7.00;1.80;;;;;;;4.07;100.00;102078.19;5489353;26;20320;-38
2024/04/21 03:36:31;;;;;;;3.97;1.20;;;;;;;4.10;100.00;102069.88;5488862;26;20446;-39
2024/04/21 03:38:56;;;;;;;6.03;1.10;;;;;;;4.08;100.00;102066.50;5489532;26;20322;-39
2024/04/21 03:41:22;;;;;;;6.33;1.57;;;;;;;4.09;100.00;102064.66;5491859;26;20219;-39
2024/04/21 03:43:48;;;;;;;5.93;1.50;;;;;;;4.06;100.00;102051.59;5492701;26;19997;-39
2024/04/21 03:46:13;;;;;;;5.20;1.20;;;;;;;4.05;100.00;102042.75;5492974;26;19990;-38
2024/04/21 03:48:39;;;;;;;5.73;1.43;;;;;;;4.06;100.00;102036.38;5493272;26;20417;-38
2024/04/21 03:51:05;;;;;;;6.63;1.60;;;;;;;4.07;100.00;102037.22;5493153;26;20203;-38
2024/04/21 03:53:31;;;;;;;7.05;1.33;;;;;;;4.07;100.00;102037.22;5492140;26;20001;-38
2024/04/21 03:55:56;;;;;;;7.65;1.52;;;;;;;4.12;100.00;102046.44;5492643;26;20490;-38
2024/04/21 03:58:22;;;;;;;7.90;1.80;;;;;;;4.06;100.00;102032.88;5492026;26;19986;-38
2024/04/21 04:00:47;;;;;;;6.03;1.77;;;;;;;4.12;100.00;102029.53;5492985;26;20002;-38
2024/04/21 04:03:13;;;;;;;7.10;1.83;;;;;;;4.13;100.00;102031.22;5492334;26;19990;-38
2024/04/21 04:05:38;;;;;;;7.97;1.70;;;;;;;4.11;100.00;102027.88;5492760;26;20000;-38
2024/04/21 04:08:04;;;;;;;6.17;1.77;;;;;;;4.16;100.00;102025.56;5492278;26;20020;-38
2024/04/21 04:10:29;;;;;;;6.15;1.30;;;;;;;4.16;100.00;102038.09;5492564;26;20487;-38
2024/04/21 04:12:54;;;;;;;8.27;1.90;;;;;;;4.15;100.00;102034.59;5492129;26;19990;-38
2024/04/21 04:15:20;;;;;;;7.20;1.50;;;;;;;4.10;100.00;102031.56;5492081;26;20471;-38
2024/04/21 04:17:45;;;;;;;5.43;1.90;;;;;;;4.10;100.00;102026.19;5491988;26;19994;-38
2024/04/21 04:20:11;;;;;;;9.23;1.93;;;;;;;4.08;100.00;102028.19;5492563;26;20422;-38
2024/04/21 04:22:36;;;;;;;5.07;1.40;;;;;;;3.97;100.00;102017.75;5491986;26;19990;-38
2024/04/21 04:25:03;;;;;;;4.43;1.38;;;;;;;4.07;100.00;102032.69;5492636;26;20002;-38
2024/04/21 04:27:28;;;;;;;6.07;1.58;;;;;;;4.07;100.00;102029.19;5491590;26;19990;-38
2024/04/21 04:29:54;;;;;;;4.75;1.30;;;;;;;4.08;100.00;102033.53;5491781;26;20327;-38
2024/04/21 04:32:19;;;;;;;6.47;1.57;;;;;;;4.06;100.00;102033.69;5491798;26;19986;-38
2024/04/21 04:34:44;;;;;;;4.70;1.50;;;;;;;4.02;100.00;102015.44;5491756;26;20331;-38
2024/04/21 04:37:10;;;;;;;7.20;1.50;;;;;;;4.10;100.00;102023.53;5491826;26;20062;-38
2024/04/21 04:39:35;;;;;;;5.00;1.40;;;;;;;4.07;100.00;102030.03;5492150;26;19990;-38
2024/04/21 04:42:00;;;;;;;6.80;2.43;;;;;;;4.03;100.00;102025.97;5491424;26;20000;-38
2024/04/21 04:44:26;;;;;;;6.40;1.70;;;;;;;4.03;100.00;102030.50;5491538;26;20379;-38
2024/04/21 04:46:51;;;;;;;6.57;1.30;;;;;;;3.98;100.00;102030.97;5491148;26;20423;-38
2024/04/21 04:49:16;;;;;;;3.97;1.37;;;;;;;3.98;100.00;102032.81;5491395;26;20334;-38
2024/04/21 04:51:41;;;;;;;7.37;1.40;;;;;;;3.87;100.00;102026.72;5491016;26;20097;-38
2024/04/21 04:54:07;;;;;;;4.60;1.43;;;;;;;3.84;100.00;102029.72;5491762;26;20259;-38
2024/04/21 04:56:32;;;;;;;4.23;1.07;;;;;;;3.80;100.00;102023.00;5491893;26;20354;-38
2024/04/21 04:58:57;;;;;;;6.03;1.27;;;;;;;3.81;100.00;102031.88;5492088;26;20403;-38
2024/04/21 05:01:23;;;;;;;4.87;1.30;;;;;;;3.80;100.00;102036.38;5491682;26;19994;-39
2024/04/21 05:03:48;;;;;;;5.57;1.60;;;;;;;3.80;100.00;102040.88;5492667;26;20001;-39
2024/04/21 05:06:14;;;;;;;4.90;1.30;;;;;;;3.87;100.00;102052.66;5491746;26;19990;-38
2024/04/21 05:08:39;;;;;;;4.03;1.30;;;;;;;3.90;100.00;102046.13;5493009;26;20005;-38
2024/04/21 05:11:04;;;;;;;4.90;1.10;;;;;;;3.94;100.00;102052.84;5491287;26;19990;-38
2024/04/21 05:13:29;;;;;;;5.20;1.40;;;;;;;3.88;100.00;102041.78;5490836;26;19990;-38
2024/04/21 05:15:55;;;;;;;3.57;1.10;;;;;;;3.96;100.00;102056.22;5491856;26;20429;-38
2024/04/21 05:18:21;;;;;;;2.92;1.10;;;;;;;3.92;100.00;102049.50;5491176;26;19997;-38
2024/04/21 05:20:46;;;;;;;3.60;0.90;;;;;;;4.02;100.00;102060.94;5490948;26;19997;-38
2024/04/21 05:23:11;;;;;;;4.55;1.10;;;;;;;3.99;100.00;102050.53;5491346;26;20014;-38
2024/04/21 05:25:37;;;;;;;5.03;1.60;;;;;;;4.09;100.00;102067.31;5491403;26;19990;-38
2024/04/21 05:28:02;;;;;;;4.93;1.83;;;;;;;4.12;100.00;102064.34;5490849;26;20435;-38
2024/04/21 05:30:28;;;;;;;5.70;1.30;;;;;;;4.14;100.00;102068.53;5491025;26;20004;-38
2024/04/21 05:32:53;;;;;;;4.73;1.47;;;;;;;4.16;100.00;102067.56;5490864;26;19994;-38
2024/04/21 05:35:18;;;;;;;4.00;1.50;;;;;;;4.18;100.00;102071.72;5491258;26;20001;-38
2024/04/21 05:37:44;;;;;;;2.63;1.10;;;;;;;4.21;100.00;102073.28;5458529;26;19990;-38
2024/04/21 05:40:09;;;;;;;6.40;1.40;;;;;;;4.13;100.00;102057.97;5491191;26;19994;-38
2024/04/21 05:42:35;;;;;;;5.15;1.00;;;;;;;4.27;100.00;102075.31;5490776;26;20001;-38
2024/04/21 05:45:00;;;;;;;5.40;1.10;;;;;;;4.30;100.00;102088.38;5490801;26;20066;-38
2024/04/21 05:47:26;;;;;;;3.50;1.00;;;;;;;4.33;100.00;102091.56;5491039;26;20009;-38
2024/04/21 05:49:51;;;;;;;6.17;1.47;;;;;;;4.34;100.00;102101.28;5459055;26;20006;-38
2024/04/21 05:52:17;;;;;;;5.77;1.47;;;;;;;4.33;100.00;102091.56;5490367;26;20070;-38
2024/04/21 05:54:43;;;;;;;5.03;1.08;;;;;;;4.37;100.00;102108.16;5490820;26;20001;-38
2024/04/21 05:57:08;;;;;;;4.72;1.42;;;;;;;4.36;100.00;102117.19;5491221;26;20339;-38
2024/04/21 05:59:33;;;;;;;4.45;1.25;;;;;;;4.39;100.00;102114.19;5491209;26;19990;-38
2024/04/21 06:01:59;;;;;;;4.73;1.30;;;;;;;4.38;100.00;102104.47;5491040;26;20001;-38
2024/04/21 06:04:24;;;;;;;4.17;1.43;;;;;;;4.27;100.00;102118.97;5490201;26;19994;-38
2024/04/21 06:06:51;;;;;;;5.40;1.27;;;;;;;4.33;100.00;102115.66;5490445;26;20338;-38
2024/04/21 06:09:16;;;;;;;;;;;;;;;4.56;100.00;102125.84;5491493;26;20254;-38
2024/04/21 06:11:41;;;;;;;3.15;0.82;;;;;;;4.52;100.00;102127.16;5490477;26;19924;-38
2024/04/21 06:14:07;;;;;;;2.73;1.13;;;;;;;4.53;100.00;102121.63;5490770;26;19990;-38
2024/04/21 06:16:33;;;;;;;4.28;1.25;;;;;;;4.54;100.00;102119.78;5490022;26;20002;-38
2024/04/21 06:18:58;;;;;;;2.07;0.70;;;;;;;4.63;100.00;102130.38;5490859;26;20301;-38
2024/04/21 06:21:23;;;;;;;2.03;0.60;;;;;;;4.70;100.00;102137.78;5489955;26;20326;-38
2024/04/21 06:23:48;;;;;;;2.60;0.77;;;;;;;4.68;100.00;102132.56;5490567;26;20002;-38
2024/04/21 06:26:14;;;;;;;1.77;0.73;;;;;;;4.80;100.00;102146.53;5490566;26;20303;-38
2024/04/21 06:28:39;;;;;;;3.27;1.00;;;;;;;4.86;100.00;102151.25;5490008;26;20001;-38
2024/04/21 06:31:05;;;;;;;4.33;1.13;;;;;;;4.85;100.00;102150.41;5490062;26;20031;-38
2024/04/21 06:33:30;;;;;;;2.13;0.83;;;;;;;4.95;100.00;102157.50;5489915;26;20318;-38
2024/04/21 06:35:55;;;;;;;2.53;0.80;;;;;;;4.89;100.00;102159.81;5490009;26;19986;-38
2024/04/21 06:38:21;;;;;;;5.47;1.50;;;;;;;4.83;100.00;102157.78;5490285;26;19993;-38
2024/04/21 06:40:46;;;;;;;4.03;1.03;;;;;;;4.81;100.00;102162.44;5490113;26;20323;-38
2024/04/21 06:43:11;;;;;;;2.57;0.83;;;;;;;4.80;100.00;102176.88;5489905;26;19998;-38
2024/04/21 06:45:44;;;;;;;3.63;0.70;;;;;;;4.77;100.00;102179.84;5489808;26;19998;-38
2024/04/21 06:48:09;;;;;;;2.90;0.82;;;;;;;4.64;100.00;102184.81;5490036;26;20002;-38
2024/04/21 06:50:35;;;;;;;1.33;0.73;;;;;;;4.67;100.00;102194.38;5490113;26;20062;-38
2024/04/21 06:53:00;;;;;;;2.63;0.90;;;;;;;4.52;100.00;102180.72;5489668;26;20005;-38
2024/04/21 06:55:25;;;;;;;2.37;0.70;;;;;;;4.58;100.00;102193.47;5490212;26;20014;-38
2024/04/21 06:57:51;;;;;;;1.27;0.70;;;;;;;4.41;100.00;102170.28;5490024;26;20001;-38
2024/04/21 07:00:16;;;;;;;1.77;0.90;;;;;;;4.52;100.00;102208.34;5490256;26;19990;-38
2024/04/21 07:02:42;;;;;;;3.47;0.80;;;;;;;4.51;100.00;102211.19;5489895;26;19990;-39
2024/04/21 07:05:07;;;;;;;2.13;0.77;;;;;;;4.53;100.00;102226.09;5489943;26;20058;-38
2024/04/21 07:07:32;;;;;;;2.38;0.80;;;;;;;4.56;100.00;102224.97;5489375;26;19994;-38
2024/04/21 07:09:58;;;;;;;2.17;0.80;;;;;;;4.55;100.00;102229.47;5489486;26;19990;-38
2024/04/21 07:12:23;;;;;;;2.00;0.87;;;;;;;4.49;100.00;102248.00;5489497;26;19991;-38
2024/04/21 07:14:48;;;;;;;1.90;0.73;;;;;;;4.48;100.00;102251.69;5490137;26;20005;-38
2024/04/21 07:17:14;;;;;;;2.53;0.70;;;;;;;4.56;100.00;102251.75;5492658;26;19990;-38
2024/04/21 07:19:39;;;;;;;2.43;0.60;;;;;;;4.62;100.00;102262.66;5492965;26;20239;-38
2024/04/21 07:22:04;;;;;;;1.23;0.60;;;;;;;4.63;100.00;102269.69;5493168;26;19986;-38
2024/04/21 07:24:31;;;;;;;4.77;1.03;;;;;;;4.59;100.00;102267.53;5492942;26;19990;-38
2024/04/21 07:26:56;;;;;;;;;;;;;;;4.78;100.00;102275.34;5493323;26;19997;-38
2024/04/21 07:29:22;;;;;;;2.53;0.97;;;;;;;4.85;100.00;102287.09;5492934;26;19924;-38
2024/04/21 07:31:47;;;;;;;;;;;;;;;4.94;100.00;102295.22;5493198;26;19990;-38
2024/04/21 07:34:13;;;;;;;2.60;0.70;;;;;;;4.89;100.00;102299.22;5492977;26;20239;-38
2024/04/21 07:36:38;;;;;;;1.63;0.60;;;;;;;5.03;100.00;102287.06;5492742;26;20006;-38
2024/04/21 07:39:04;;;;;;;1.60;0.70;;;;;;;5.02;100.00;102287.19;5492702;26;20003;-38
2024/04/21 07:41:29;;;;;;;3.00;0.65;;;;;;;5.28;100.00;102309.47;5492880;26;19986;-38
2024/04/21 07:43:55;;;;;;;2.80;0.90;;;;;;;5.54;100.00;102316.63;5493094;26;20310;-38
2024/04/21 07:46:20;;;;;;;3.13;1.02;;;;;;;5.66;100.00;102329.59;5492829;26;20001;-38
2024/04/21 07:48:46;;;;;;;2.97;1.10;;;;;;;5.68;100.00;102318.69;5492698;26;19994;-39
2024/04/21 07:51:11;;;;;;;3.13;1.13;;;;;;;5.55;100.00;102331.72;5492650;26;20004;-38
2024/04/21 07:53:36;;;;;;;5.10;0.97;;;;;;;5.58;100.00;102334.09;5492292;26;20090;-39
2024/04/21 07:56:02;;;;;;;2.47;0.90;;;;;;;5.55;100.00;102350.50;5493055;26;20259;-38
2024/04/21 07:58:27;;;;;;;3.00;0.90;;;;;;;5.35;100.00;102357.94;5492168;26;20336;-38
2024/04/21 08:00:53;;;;;;;3.87;1.10;;;;;;;5.45;100.00;102363.19;5460448;26;20021;-38
2024/04/21 08:03:18;;;;;;;;;;;;;;;5.64;100.00;102366.47;5493311;26;19994;-38
2024/04/21 08:05:44;;;;;;;3.30;1.08;;;;;;;5.59;100.00;102371.47;5493117;26;19930;-38
2024/04/21 08:08:09;;;;;;;3.73;1.23;;;;;;;5.63;100.00;102383.59;5492622;26;20318;-38
2024/04/21 08:10:35;;;;;;;2.53;0.93;;;;;;;5.71;100.00;102387.28;5492565;26;20572;-38
2024/04/21 08:13:00;;;;;;;3.07;1.20;;;;;;;5.67;100.00;102387.63;5491786;26;20309;-38
2024/04/21 08:15:25;;;;;;;5.87;1.60;;;;;;;5.71;100.00;102385.47;5492841;26;19990;-38
2024/04/21 08:17:51;;;;;;;3.97;1.20;;;;;;;5.66;100.00;102390.44;5492102;26;20001;-38
2024/04/21 08:20:18;;;;;;;3.80;1.00;;;;;;;5.60;100.00;102377.69;5492730;26;19986;-38
2024/04/21 08:22:43;;;;;;;6.53;1.60;;;;;;;5.58;100.00;102393.13;5492568;26;19990;-38
2024/04/21 08:25:09;;;;;;;4.97;1.10;;;;;;;5.46;100.00;102394.38;5492246;26;20059;-38
2024/04/21 08:27:35;;;;;;;3.00;0.90;;;;;;;5.46;100.00;102399.75;5491583;26;20062;-38
2024/04/21 08:30:01;;;;;;;5.13;1.30;;;;;;;5.68;100.00;102389.31;5492481;26;20046;-38
2024/04/21 08:32:26;;;;;;;4.97;1.30;;;;;;;5.97;100.00;102390.78;5491943;26;19994;-38
2024/04/21 08:34:52;;;;;;;4.07;1.10;;;;;;;6.29;100.00;102398.09;5491853;26;19986;-38
2024/04/21 08:37:17;;;;;;;5.45;1.15;;;;;;;6.63;100.00;102395.28;5491760;26;19990;-38
2024/04/21 08:39:43;;;;;;;2.97;1.00;;;;;;;6.77;100.00;102395.63;5492086;26;20445;-38
2024/04/21 08:42:09;;;;;;;5.50;1.10;;;;;;;6.93;100.00;102409.91;5492040;26;20241;-38
2024/04/21 08:44:35;;;;;;;3.85;1.10;;;;;;;7.27;100.00;102403.50;5492168;26;20284;-38
2024/04/21 08:47:01;;;;;;;;;;;;;;;7.45;100.00;102411.34;5492050;26;19991;-38
2024/04/21 08:49:28;;;;;;;3.17;1.00;;;;;;;7.48;100.00;102416.38;5491945;26;19991;-38
2024/04/21 08:51:53;;;;;;;4.22;1.33;;;;;;;7.44;100.00;102410.50;5491572;26;19986;-38
2024/04/21 08:54:19;;;;;;;6.70;1.60;;;;;;;7.60;100.00;102419.53;5491347;26;20001;-38
2024/04/21 08:56:48;;;;;;;5.63;1.40;;;;;;;7.47;100.00;102418.25;5491591;26;20062;-38
2024/04/21 08:59:15;;;;;;;4.35;1.20;;;;;;;7.40;100.00;102411.84;5491720;26;19994;-38
2024/04/21 09:01:41;;;;;;;4.65;1.15;;;;;;;7.20;100.00;102432.91;5492071;26;19994;-39
2024/04/21 09:04:07;;;;;;;7.00;1.52;;;;;;;7.42;100.00;102428.69;5491659;26;19990;-38
2024/04/21 09:06:33;;;;;;;4.53;1.20;;;;;;;7.54;100.00;102414.84;5492198;26;20005;-38
2024/04/21 09:08:59;;;;;;;4.32;1.50;;;;;;;7.76;100.00;102432.97;5491971;26;20018;-38
2024/04/21 09:11:26;;;;;;;5.00;1.42;;;;;;;7.90;100.00;102436.78;5491639;26;20020;-38
2024/04/21 09:13:53;;;;;;;6.28;1.45;;;;;;;8.11;100.00;102431.66;5492698;26;19994;-38
2024/04/21 09:16:19;;;;;;;7.40;1.80;;;;;;;7.88;100.00;102445.03;5491334;26;20004;-39
2024/04/21 09:18:44;;;;;;;5.43;1.80;;;;;;;8.13;100.00;102436.84;5491797;26;20322;-38
2024/04/21 09:21:10;;;;;;;5.97;1.93;;;;;;;8.00;100.00;102449.03;5491012;26;20002;-38
2024/04/21 09:23:36;;;;;;;7.63;1.50;;;;;;;7.96;100.00;102442.31;5490519;26;19994;-39
2024/04/21 09:26:02;;;;;;;4.43;1.50;;;;;;;7.82;100.00;102461.06;5491119;26;19990;-38
2024/04/21 09:28:27;;;;;;;4.03;1.88;;;;;;;7.70;100.00;102465.97;5490566;26;20008;-38
2024/04/21 09:30:52;;;;;;;6.10;1.83;;;;;;;7.66;100.00;102460.09;5492003;26;19990;-38
2024/04/21 09:33:18;;;;;;;4.53;1.50;;;;;;;7.41;99.21;102464.66;5491024;26;19990;-39
2024/04/21 09:35:43;;;;;;;5.43;2.10;;;;;;;7.36;100.00;102477.78;5491688;26;19997;-38
2024/04/21 09:38:08;;;;;;;6.17;1.83;;;;;;;7.29;100.00;102478.66;5489622;26;19997;-38
2024/04/21 09:40:36;;;;;;;7.05;2.30;;;;;;;7.38;100.00;102469.56;5491920;26;20054;-38
2024/04/21 09:43:02;;;;;;;8.43;2.40;;;;;;;7.36;100.00;102480.47;5490796;26;20350;-37
2024/04/21 09:45:29;;;;;;;7.13;2.58;;;;;;;7.84;100.00;102465.25;5491193;26;20004;-38
2024/04/21 09:47:55;;;;;;;6.40;2.28;;;;;;;7.89;100.00;102478.19;5490994;26;19986;-37
2024/04/21 09:50:21;;;;;;;6.85;2.47;;;;;;;7.92;98.10;102483.25;5491092;26;20373;-37
2024/04/21 09:52:49;;;;;;;5.15;2.22;;;;;;;7.66;99.14;102488.84;5490903;26;20047;-38
2024/04/21 09:55:16;;;;;;;4.88;1.98;;;;;;;7.64;99.26;102496.28;5491254;26;20035;-38
2024/04/21 09:57:43;;;;;;;3.60;2.00;;;;;;;7.70;100.00;102495.56;5491294;26;20329;-38
2024/04/21 10:00:10;;;;;;;6.22;2.15;;;;;;;7.57;100.00;102474.59;5491205;26;20006;-38
2024/04/21 10:02:37;;;;;;;7.05;1.92;;;;;;;7.78;100.00;102494.72;5491052;26;20062;-38
2024/04/21 10:05:09;;;;;;;5.05;1.95;;;;;;;7.77;100.00;102496.59;5491224;26;20062;-38
2024/04/21 10:07:39;;;;;;;6.80;2.05;;;;;;;8.06;100.00;102500.53;5490809;26;20004;-38
2024/04/21 10:10:09;;;;;;;3.97;1.45;;;;;;;8.20;96.98;102500.66;5490595;26;20434;-39
2024/04/21 10:12:36;;;;;;;4.00;1.50;;;;;;;7.99;97.32;102509.28;5490247;26;20449;-38
2024/04/21 10:15:04;;;;;;;4.68;1.35;;;;;;;7.91;94.58;102501.25;5490977;26;20013;-38
2024/04/21 10:17:29;;;;;;;5.28;1.25;;;;;;;8.13;97.03;102498.81;5490080;26;20005;-39
2024/04/21 10:20:04;;;;;;;3.43;1.27;;;;;;;8.39;93.64;102510.19;5490178;26;19990;-38
2024/04/21 10:22:30;;;;;;;3.38;1.10;;;;;;;8.62;93.86;102491.34;5490279;26;19998;-38
2024/04/21 10:24:55;;;;;;;;;;;;;;;8.98;93.20;102507.00;5491184;26;20067;-39
2024/04/21 10:27:22;;;;;;;6.20;1.17;;;;;;;8.58;90.09;102503.50;5489928;26;19931;-38
2024/04/21 10:29:47;;;;;;;3.55;1.10;;;;;;;8.87;89.95;102516.31;5490753;26;20695;-39
2024/04/21 10:32:26;;;;;;;3.30;1.10;;;;;;;9.09;92.09;102511.13;5490109;26;19990;-39
2024/04/21 10:34:54;;;;;;;2.70;1.10;;;;;;;9.30;89.68;102505.88;5490053;26;20458;-39
2024/04/21 10:37:23;;;;;;;2.75;1.13;;;;;;;9.17;86.80;102514.56;5490044;26;19990;-39
2024/04/21 10:39:49;;;;;;;3.60;1.27;;;;;;;9.03;87.09;102513.53;5490358;26;20066;-39
2024/04/21 10:42:15;;;;;;;5.00;1.55;;;;;;;8.95;87.83;102516.25;5490350;26;20446;-38
2024/04/21 10:44:41;;;;;;;3.10;1.52;;;;;;;8.76;88.89;102519.44;5490775;26;20348;-39
2024/04/21 10:47:06;;;;;;;3.35;1.08;;;;;;;8.59;89.85;102513.31;5490345;26;20002;-38
2024/04/21 10:49:32;;;;;;;3.83;1.30;;;;;;;8.81;92.95;102517.03;5489989;26;20483;-38
2024/04/21 10:51:57;;;;;;;2.57;1.37;;;;;;;8.95;89.45;102516.25;5489932;26;20006;-38
2024/04/21 10:54:22;;;;;;;2.03;1.20;;;;;;;9.10;89.04;102502.00;5489647;26;19994;-39
2024/04/21 10:56:49;;;;;;;3.87;1.33;;;;;;;9.45;85.27;102514.84;5490379;26;19994;-38
2024/04/21 10:59:15;;;;;;;2.10;1.10;;;;;;;9.33;82.80;102500.13;5490534;26;20269;-38
2024/04/21 11:01:40;;;;;;;3.20;1.10;;;;;;;9.46;85.55;102499.47;5490075;26;19994;-38
2024/04/21 11:04:05;;;;;;;3.67;1.40;;;;;;;9.29;82.57;102517.69;5489841;26;20002;-39
2024/04/21 11:06:31;;;;;;;2.00;0.93;;;;;;;9.31;82.68;102512.94;5490027;26;19994;-39
2024/04/21 11:08:57;;;;;;;2.38;1.30;;;;;;;9.69;85.47;102510.22;5490061;26;20058;-39
2024/04/21 11:11:22;;;;;;;3.55;1.55;;;;;;;10.01;86.91;102509.88;5490003;26;20062;-39
2024/04/21 11:13:48;;;;;;;3.17;1.40;;;;;;;9.91;83.29;102516.59;5489738;26;20437;-39
2024/04/21 11:16:14;;;;;;;4.32;1.48;;;;;;;9.64;83.84;102508.09;5489622;26;20224;-39
2024/04/21 11:18:39;;;;;;;3.33;1.35;;;;;;;9.32;82.89;102525.44;5489660;26;19994;-38